McConnell AFB, Kansas
Current Conditions -  °F | °C
As of 5:54 AM on Thursday 29 Jan 2015 (Local Time) from KWLD Reporting Station
Clear Clear  
Wind Chill: 36°   Ceiling: Unl
Heat Index: 45°   Visibility: 10mi
Dew Point: 32°   Wind: 24mph
Humidity: 60%   Direction: 360°N
Pressure: 30.19"   Gusts: 36mph
Location:  37.38°N, 97.15°W
Report Text: KWLD 291154Z AUTO 36021G31KT 10SM CLR 07/00 A3019 RMK AO2 PK WND 35035/1140 PRESRR SLP223 T00720000 10122 20072 53030
Loading
Personal Weather Stations






























Interactive Weather Map New forecast layout! Learn more

10-Day Weather Forecast

Advertisements
Track Severe Weather on mobile